Time;durP1;ratioP1;P1;durP2;ratioP2;P2;SDS_P1;SDS_P2;PMS_P1;PMS_P2;Temp;Humidity;BMP_temperature;BMP_pressure;BME280_temperature;BME280_humidity;BME280_pressure;Samples;Min_cycle;Max_cycle;Signal;HPM_P1;HPM_P2
2022/05/14 00:01:36;;;;;;;41.45;20.38;;;;;;;28.39;54.39;96976.06;4911259;29;20059;-67
2022/05/14 00:04:31;;;;;;;44.53;22.52;;;;;;;28.35;53.93;96971.34;4910003;29;20115;-66
2022/05/14 00:07:07;;;;;;;49.97;21.42;;;;;;;28.32;54.18;96979.72;4911250;29;20044;-66
2022/05/14 00:09:55;;;;;;;49.17;21.42;;;;;;;28.23;49.66;96984.38;4911850;29;20059;-66
2022/05/14 00:15:44;;;;;;;52.55;23.13;;;;;;;28.16;52.63;96980.88;4881779;29;20139;-66
2022/05/14 00:18:26;;;;;;;52.47;21.23;;;;;;;28.12;48.15;96987.53;4885972;29;20048;-66
2022/05/14 00:21:22;;;;;;;46.15;22.48;;;;;;;28.11;52.71;96981.44;4882789;29;20521;-65
2022/05/14 00:23:58;;;;;;;48.38;20.80;;;;;;;28.09;51.00;97001.19;4882276;29;20049;-65
2022/05/14 00:26:47;;;;;;;53.45;21.52;;;;;;;28.10;53.38;96994.88;4882174;29;20664;-66
2022/05/14 00:29:36;;;;;;;46.40;20.85;;;;;;;28.11;52.78;97005.25;4883005;29;20111;-66
2022/05/14 00:32:25;;;;;;;47.20;21.85;;;;;;;28.11;52.77;97009.75;4881142;29;20141;-66
2022/05/14 00:35:07;;;;;;;44.95;20.92;;;;;;;28.11;54.74;97007.91;4882438;29;20052;-66
2022/05/14 00:37:56;;;;;;;38.95;20.75;;;;;;;28.11;54.99;97012.38;4880718;29;20136;-66
2022/05/14 00:40:51;;;;;;;52.58;20.52;;;;;;;28.13;55.06;97013.03;4882194;29;20568;-66
2022/05/14 00:43:55;;;;;;;42.45;21.23;;;;;;;28.11;54.71;97012.38;4882520;29;20119;-66
2022/05/14 00:47:09;;;;;;;55.63;22.33;;;;;;;28.08;52.89;97026.03;4882751;29;20617;-66
2022/05/14 00:50:04;;;;;;;47.47;21.05;;;;;;;28.08;53.89;97021.56;4899432;28;20044;-66
2022/05/14 00:53:02;;;;;;;52.60;21.95;;;;;;;28.06;55.05;97022.75;4901249;29;20068;-65
2022/05/14 00:55:54;;;;;;;44.85;20.85;;;;;;;28.09;55.96;97031.16;4897530;29;20048;-65
2022/05/14 00:58:44;;;;;;;57.75;22.23;;;;;;;28.07;54.59;97033.16;4890584;29;20406;-66
2022/05/14 01:01:34;;;;;;;50.28;20.90;;;;;;;28.10;56.79;97029.28;4890484;29;20144;-66
2022/05/14 01:04:19;;;;;;;60.38;22.10;;;;;;;28.16;56.21;97025.91;4890445;29;20052;-65
2022/05/14 01:07:20;;;;;;;45.60;21.70;;;;;;;28.20;57.60;97031.63;4892256;29;20041;-65
2022/05/14 01:10:05;;;;;;;55.60;23.05;;;;;;;28.24;56.96;97031.03;4896476;29;20052;-66
2022/05/14 01:13:06;;;;;;;56.08;24.83;;;;;;;28.27;55.15;97033.28;4901453;29;20386;-65
2022/05/14 01:16:00;;;;;;;64.47;25.58;;;;;;;28.37;56.05;97036.38;4891604;29;20072;-65
2022/05/14 01:18:43;;;;;;;59.60;25.80;;;;;;;28.47;58.96;97033.38;4906181;29;20610;-66
2022/05/14 01:21:50;;;;;;;56.05;26.63;;;;;;;28.60;55.27;97038.69;4928196;29;20052;-66
2022/05/14 01:28:13;;;;;;;50.55;24.90;;;;;;;28.87;55.08;97052.88;4889575;29;20147;-66
2022/05/14 01:31:05;;;;;;;66.47;24.10;;;;;;;28.99;55.40;97056.53;4889267;29;20765;-65
2022/05/14 01:33:48;;;;;;;46.63;22.63;;;;;;;29.11;54.30;97049.63;4888857;29;20067;-66
2022/05/14 01:36:39;;;;;;;40.63;21.30;;;;;;;29.28;54.52;97061.50;4888766;29;20107;-66
2022/05/14 01:39:22;;;;;;;44.00;20.95;;;;;;;29.42;55.33;97064.16;4920356;29;20483;-66
2022/05/14 01:42:12;;;;;;;46.38;20.45;;;;;;;29.56;55.05;97068.44;4927337;29;20044;-66
2022/05/14 01:45:02;;;;;;;46.15;20.48;;;;;;;29.74;51.96;97060.69;4928782;29;20051;-66
2022/05/14 01:47:51;;;;;;;47.63;19.15;;;;;;;29.99;53.38;97069.66;4907465;29;20075;-65
2022/05/14 01:50:47;;;;;;;39.50;17.92;;;;;;;30.40;50.23;97071.97;4897683;29;20049;-65
2022/05/14 01:53:24;;;;;;;44.38;17.45;;;;;;;31.04;46.92;97079.06;4890831;29;20143;-64
2022/05/14 01:56:13;;;;;;;46.63;18.08;;;;;;;31.81;46.48;97082.38;4888279;29;20052;-65
2022/05/14 01:59:03;;;;;;;44.13;16.75;;;;;;;32.47;45.35;97087.03;4889866;29;20055;-66
2022/05/14 02:01:46;;;;;;;;;;;;;;;32.97;45.15;97095.63;4906964;29;20056;-66
2022/05/14 02:04:34;;;;;;;39.88;16.30;;;;;;;33.37;44.51;97101.22;4899138;29;19933;-66
2022/05/14 02:07:16;;;;;;;43.90;17.45;;;;;;;33.90;41.57;97111.91;4898344;29;20048;-66
2022/05/14 02:10:05;;;;;;;43.10;17.73;;;;;;;34.11;41.62;97107.81;4902171;29;20097;-66
2022/05/14 02:12:55;;;;;;;48.83;17.65;;;;;;;34.44;39.69;97115.25;4896904;29;20052;-65
2022/05/14 02:15:37;;;;;;;121.32;22.25;;;;;;;34.62;41.41;97109.75;4898769;29;20047;-65
2022/05/14 02:18:28;;;;;;;51.30;18.00;;;;;;;34.90;42.42;97127.72;4924252;29;20051;-66
2022/05/14 02:21:12;;;;;;;42.38;18.15;;;;;;;35.03;41.91;97118.59;4898135;29;20048;-65
2022/05/14 02:24:01;;;;;;;41.20;16.90;;;;;;;35.27;41.94;97129.00;4898352;29;20166;-65
2022/05/14 02:26:43;;;;;;;56.40;18.20;;;;;;;35.67;39.91;97128.06;4903116;29;20063;-65
2022/05/14 02:29:51;;;;;;;34.28;17.70;;;;;;;35.85;39.34;97135.03;4897047;29;20140;-65
2022/05/14 02:32:27;;;;;;;45.80;18.73;;;;;;;35.93;40.64;97132.75;4899132;29;20391;-65
2022/05/14 02:35:15;;;;;;;;;;;;;;;36.01;38.03;97129.66;4900204;29;20104;-66
2022/05/14 02:37:57;;;;;;;48.97;20.75;;;;;;;36.36;41.60;97142.00;4900210;29;20355;-66
2022/05/14 02:40:46;;;;;;;53.95;22.75;;;;;;;36.40;42.12;97137.75;4899544;29;20528;-66
2022/05/14 02:43:28;;;;;;;62.58;24.23;;;;;;;36.47;39.91;97141.09;4898848;29;20576;-66
2022/05/14 02:46:17;;;;;;;61.60;23.25;;;;;;;36.57;42.54;97143.88;4899948;29;20036;-66
2022/05/14 02:48:59;;;;;;;64.88;29.02;;;;;;;36.77;40.86;97154.09;4903250;28;20123;-66
2022/05/14 02:51:48;;;;;;;67.03;28.02;;;;;;;36.60;36.97;97159.50;4896446;29;20135;-65
2022/05/14 02:54:31;;;;;;;78.97;27.42;;;;;;;36.70;34.59;97154.28;4914472;29;20048;-66
2022/05/14 02:57:26;;;;;;;66.93;26.02;;;;;;;36.48;36.13;97160.69;4897412;29;20636;-67
2022/05/14 03:00:07;;;;;;;54.63;24.77;;;;;;;36.88;36.22;97157.72;4900912;29;20052;-64
2022/05/14 03:02:56;;;;;;;75.05;24.52;;;;;;;36.77;35.78;97165.66;4898584;29;20055;-65
2022/05/14 03:05:38;;;;;;;59.63;23.00;;;;;;;36.60;33.57;97170.22;4897186;29;20079;-67
2022/05/14 03:08:27;;;;;;;68.13;24.25;;;;;;;36.96;34.71;97159.97;4898133;29;20052;-66
2022/05/14 03:11:17;;;;;;;108.82;25.30;;;;;;;37.18;35.38;97166.16;4896551;29;20173;-64
2022/05/14 03:13:59;;;;;;;43.17;22.08;;;;;;;37.25;34.48;97168.63;4897725;29;20044;-66
2022/05/14 03:16:49;;;;;;;55.13;20.08;;;;;;;37.49;35.03;97172.63;4898471;29;20445;-65
2022/05/14 03:19:31;;;;;;;56.72;21.50;;;;;;;37.42;37.07;97172.84;4920026;29;20048;-66
2022/05/14 03:22:20;;;;;;;51.67;20.88;;;;;;;37.53;32.96;97177.22;4928027;29;20115;-65
2022/05/14 03:25:04;;;;;;;51.15;20.15;;;;;;;37.60;35.02;97184.34;4930779;29;20056;-66
2022/05/14 03:27:54;;;;;;;45.35;18.48;;;;;;;37.71;31.55;97180.66;4930000;29;20441;-66
2022/05/14 03:30:38;;;;;;;48.50;18.75;;;;;;;37.86;34.88;97176.22;4928682;29;20047;-66
2022/05/14 03:33:26;;;;;;;47.45;20.40;;;;;;;37.85;31.52;97176.47;4892489;29;20060;-66
2022/05/14 03:36:08;;;;;;;51.97;18.63;;;;;;;38.04;34.11;97180.38;4905195;29;20147;-66
2022/05/14 03:38:57;;;;;;;51.85;18.88;;;;;;;38.25;35.75;97179.47;4892352;29;20140;-65
2022/05/14 03:41:46;;;;;;;45.22;18.30;;;;;;;38.06;30.28;97193.63;4892776;29;20044;-67
2022/05/14 03:44:36;;;;;;;52.60;18.48;;;;;;;38.24;31.23;97196.69;4892968;29;20140;-66
2022/05/14 03:47:18;;;;;;;55.40;20.20;;;;;;;38.13;33.43;97196.91;4905354;29;20619;-66
2022/05/14 03:50:14;;;;;;;53.80;18.95;;;;;;;38.63;32.49;97196.44;4930136;28;20055;-66
2022/05/14 03:53:03;;;;;;;50.60;18.52;;;;;;;38.78;33.90;97193.81;4929857;29;20063;-67
2022/05/14 03:55:52;;;;;;;52.55;19.23;;;;;;;38.80;36.14;97205.09;4930390;29;20151;-67
2022/05/14 03:58:34;;;;;;;44.75;18.42;;;;;;;39.07;35.72;97201.47;4921201;29;20400;-67
2022/05/14 04:01:23;;;;;;;47.38;18.95;;;;;;;38.97;34.72;97199.56;4876152;29;20485;-67
2022/05/14 04:04:19;;;;;;;54.72;19.95;;;;;;;39.04;31.29;97197.41;4891443;29;20108;-67
2022/05/14 04:06:55;;;;;;;53.55;17.35;;;;;;;38.98;30.37;97204.69;4892798;29;20060;-66
2022/05/14 04:09:51;;;;;;;;;;;;;;;39.55;31.94;97211.88;4893615;29;20052;-65
2022/05/14 04:12:27;;;;;;;36.53;14.02;;;;;;;39.54;30.06;97212.13;4908518;29;19927;-66
2022/05/14 04:15:23;;;;;;;42.17;14.60;;;;;;;39.45;30.78;97219.94;4909324;29;20071;-66
2022/05/14 04:17:59;;;;;;;37.78;12.85;;;;;;;39.50;28.88;97209.19;4909236;29;20048;-67
2022/05/14 04:20:54;;;;;;;42.65;13.02;;;;;;;39.85;30.83;97215.72;4913555;29;20059;-67
2022/05/14 04:23:31;;;;;;;35.78;12.73;;;;;;;39.99;31.81;97222.22;4894496;29;20607;-67
2022/05/14 04:26:22;;;;;;;39.17;12.98;;;;;;;40.11;32.00;97220.03;4904376;29;20139;-67
2022/05/14 04:29:04;;;;;;;39.83;14.88;;;;;;;40.09;30.67;97225.69;4891370;29;20498;-67
2022/05/14 04:31:53;;;;;;;41.20;13.88;;;;;;;40.11;31.86;97228.13;4904087;29;20053;-66
2022/05/14 04:34:42;;;;;;;35.15;12.98;;;;;;;40.19;32.96;97219.50;4907398;29;20115;-67
2022/05/14 04:37:24;;;;;;;41.50;16.75;;;;;;;40.26;30.12;97225.44;4899382;29;20452;-68
2022/05/14 04:40:15;;;;;;;41.63;14.55;;;;;;;40.43;33.11;97228.66;4890411;29;20155;-68
2022/05/14 04:42:57;;;;;;;54.28;16.80;;;;;;;40.45;30.49;97226.50;4890536;29;20053;-67
2022/05/14 04:45:48;;;;;;;37.30;15.57;;;;;;;40.20;29.90;97228.41;4905946;29;20081;-67
2022/05/14 04:48:30;;;;;;;42.03;17.13;;;;;;;40.33;29.94;97225.97;4899052;29;20048;-67
2022/05/14 04:51:26;;;;;;;38.83;15.55;;;;;;;40.49;31.65;97230.28;4863472;29;20481;-67
2022/05/14 04:54:02;;;;;;;38.72;15.13;;;;;;;40.25;29.50;97228.41;4859686;29;20068;-69
2022/05/14 04:56:45;;;;;;;37.95;15.18;;;;;;;40.49;31.11;97222.16;4858763;29;20045;-69
2022/05/14 04:59:35;;;;;;;52.95;17.27;;;;;;;40.83;32.47;97222.38;4857614;29;20354;-69
2022/05/14 05:05:27;;;;;;;55.92;17.92;;;;;;;41.19;33.40;97225.75;4862963;29;20052;-67
2022/05/14 05:08:16;;;;;;;45.17;16.20;;;;;;;40.77;30.32;97217.28;4865399;29;20045;-69
2022/05/14 05:10:52;;;;;;;41.42;17.52;;;;;;;40.95;31.50;97219.34;4857518;29;20056;-70
2022/05/14 05:13:48;;;;;;;53.50;18.40;;;;;;;41.18;31.70;97218.75;4862014;29;20084;-68
2022/05/14 05:16:24;;;;;;;46.63;17.88;;;;;;;41.19;29.11;97228.47;4863058;29;20132;-69
2022/05/14 05:19:19;;;;;;;55.15;18.80;;;;;;;41.06;29.73;97226.34;4864039;29;20057;-70
2022/05/14 05:21:55;;;;;;;52.30;18.42;;;;;;;41.09;29.90;97219.56;4861432;29;20057;-69
2022/05/14 05:24:46;;;;;;;55.95;17.63;;;;;;;41.41;31.44;97219.97;4866662;29;20049;-69
2022/05/14 05:27:35;;;;;;;50.97;16.90;;;;;;;41.45;30.35;97220.22;4842583;29;20434;-69
2022/05/14 05:30:17;;;;;;;44.58;16.45;;;;;;;41.55;31.04;97222.88;4863956;29;20049;-70
2022/05/14 05:33:06;;;;;;;47.58;16.02;;;;;;;41.80;31.59;97228.13;4862146;29;20691;-70
2022/05/14 05:35:49;;;;;;;59.40;17.07;;;;;;;42.14;34.30;97224.66;4860341;29;20411;-69
2022/05/14 05:38:38;;;;;;;38.03;15.55;;;;;;;41.75;28.90;97220.03;4862264;29;20057;-69
2022/05/14 05:41:21;;;;;;;39.83;14.63;;;;;;;41.56;30.44;97230.72;4865414;29;20057;-67
2022/05/14 05:44:11;;;;;;;48.92;19.73;;;;;;;41.56;27.51;97228.03;4868961;29;20059;-68
2022/05/14 05:46:55;;;;;;;39.55;14.70;;;;;;;41.69;28.78;97226.56;4866490;29;20081;-65
2022/05/14 05:49:50;;;;;;;54.92;12.63;;;;;;;41.58;31.05;97225.84;4877439;28;20577;-69
2022/05/14 05:52:39;;;;;;;44.95;12.82;;;;;;;41.82;30.66;97225.97;4899763;29;20055;-68
2022/05/14 05:58:30;;;;;;;39.28;12.45;;;;;;;41.95;28.74;97222.63;4901941;29;20718;-69
2022/05/14 06:01:19;;;;;;;44.25;14.15;;;;;;;41.81;28.16;97226.22;4900190;29;20060;-69
2022/05/14 06:04:01;;;;;;;36.17;13.17;;;;;;;41.99;29.91;97228.25;4889536;29;20646;-69
2022/05/14 06:06:51;;;;;;;28.40;11.30;;;;;;;41.93;27.95;97230.22;4897556;29;20111;-70
2022/05/14 06:09:33;;;;;;;44.03;12.52;;;;;;;42.12;28.15;97221.41;4904750;29;20159;-70
2022/05/14 06:12:23;;;;;;;45.33;11.38;;;;;;;42.27;28.43;97215.84;4909063;29;20111;-69
2022/05/14 06:15:11;;;;;;;36.03;11.27;;;;;;;42.14;28.02;97219.22;4902757;29;20052;-69
2022/05/14 06:18:09;;;;;;;26.65;10.63;;;;;;;42.22;27.99;97213.19;4904615;29;20052;-68
2022/05/14 06:20:51;;;;;;;49.72;10.73;;;;;;;42.07;25.98;97216.03;4909749;29;20103;-70
2022/05/14 06:23:40;;;;;;;41.92;16.98;;;;;;;42.35;29.20;97201.72;4899826;29;20127;-69
2022/05/14 06:26:23;;;;;;;30.63;10.43;;;;;;;42.29;27.10;97211.78;4900335;29;20048;-70
2022/05/14 06:29:14;;;;;;;30.75;9.98;;;;;;;42.25;24.61;97204.47;4907622;29;20044;-68
2022/05/14 06:32:04;;;;;;;31.02;9.13;;;;;;;42.31;24.52;97203.34;4896954;29;20043;-68
2022/05/14 06:34:52;;;;;;;30.42;8.80;;;;;;;42.33;23.52;97196.56;4904316;29;20551;-69
2022/05/14 06:37:51;;;;;;;44.25;10.32;;;;;;;42.22;24.77;97188.81;4904224;29;20044;-71
2022/05/14 06:40:27;;;;;;;28.05;8.88;;;;;;;42.38;24.53;97198.44;4908148;29;20143;-70
2022/05/14 06:43:23;;;;;;;33.75;9.65;;;;;;;42.45;24.55;97187.25;4890844;29;20059;-71
2022/05/14 06:45:59;;;;;;;29.45;9.65;;;;;;;42.49;24.67;97193.72;4910213;29;20052;-70
2022/05/14 06:48:48;;;;;;;29.48;8.90;;;;;;;42.55;24.57;97182.53;4908644;29;20055;-70
2022/05/14 06:51:44;;;;;;;32.22;10.13;;;;;;;42.47;25.00;97179.66;4907015;29;20048;-71
2022/05/14 06:54:21;;;;;;;31.88;9.93;;;;;;;42.50;25.14;97179.06;4899574;29;20077;-65
2022/05/14 06:57:17;;;;;;;26.15;9.40;;;;;;;42.45;22.86;97176.44;4891403;29;20048;-67
2022/05/14 06:59:54;;;;;;;27.13;8.40;;;;;;;42.39;23.73;97172.94;4899058;29;20515;-67
2022/05/14 07:06:37;;;;;;;28.60;7.47;;;;;;;42.47;23.81;97180.44;4902476;29;20044;-68
2022/05/14 07:09:02;;;;;;;31.25;9.18;;;;;;;42.47;22.11;97168.81;4903280;29;20049;-68
2022/05/14 07:11:41;;;;;;;30.80;7.97;;;;;;;42.64;23.34;97161.00;4902436;29;20111;-67
2022/05/14 07:14:32;;;;;;;28.10;8.00;;;;;;;42.63;24.84;97162.91;4907802;29;20158;-69
2022/05/14 07:17:17;;;;;;;27.98;8.10;;;;;;;42.50;26.85;97152.78;4903619;29;20059;-66
2022/05/14 07:20:12;;;;;;;39.83;9.90;;;;;;;42.38;24.47;97160.53;4903421;29;20079;-69
2022/05/14 07:22:48;;;;;;;28.95;8.68;;;;;;;42.42;23.56;97160.75;4899856;29;20512;-68
2022/05/14 07:25:38;;;;;;;31.90;8.15;;;;;;;42.38;25.38;97158.63;4900601;29;20147;-66
2022/05/14 07:28:21;;;;;;;76.93;10.98;;;;;;;42.33;30.20;97152.41;4902718;29;20048;-66
2022/05/14 07:31:18;;;;;;;31.35;8.80;;;;;;;42.29;24.61;97156.78;4900210;29;20791;-66
2022/05/14 07:33:55;;;;;;;40.53;8.20;;;;;;;42.28;25.04;97157.88;4906753;29;20056;-70
2022/05/14 07:36:59;;;;;;;35.13;7.70;;;;;;;42.16;22.86;97152.03;4893874;29;20056;-68
2022/05/14 07:39:49;;;;;;;45.90;9.35;;;;;;;42.30;22.03;97153.00;4902827;29;20164;-67
2022/05/14 07:42:55;;;;;;;34.63;8.00;;;;;;;42.35;22.62;97152.97;4896656;29;20053;-71
2022/05/14 07:45:50;;;;;;;33.22;8.23;;;;;;;42.43;21.83;97149.63;4903915;29;20045;-68
2022/05/14 07:48:37;;;;;;;33.85;8.35;;;;;;;42.35;23.30;97144.84;4898084;29;20048;-66
2022/05/14 07:51:34;;;;;;;29.20;6.88;;;;;;;42.34;21.97;97148.63;4897376;29;20061;-68
2022/05/14 07:54:25;;;;;;;25.38;7.20;;;;;;;42.33;22.61;97141.56;4901840;29;20374;-65
2022/05/14 07:57:16;;;;;;;28.70;9.33;;;;;;;42.35;23.43;97139.41;4901037;29;20052;-68
2022/05/14 07:59:58;;;;;;;35.42;8.35;;;;;;;42.45;24.18;97133.09;4894920;29;20340;-70
2022/05/14 08:02:51;;;;;;;27.30;7.85;;;;;;;42.49;22.63;97124.06;4911042;29;20119;-67
2022/05/14 08:05:33;;;;;;;33.17;8.73;;;;;;;42.46;24.57;97121.97;4903986;29;20044;-66
2022/05/14 08:08:23;;;;;;;35.58;7.38;;;;;;;42.41;24.22;97115.78;4894769;29;20063;-66
2022/05/14 08:11:06;;;;;;;57.70;9.52;;;;;;;42.42;22.10;97120.91;4899153;29;20063;-66
2022/05/14 08:13:58;;;;;;;32.97;10.55;;;;;;;42.47;21.30;97118.13;4894734;29;20592;-67
2022/05/14 08:16:40;;;;;;;39.83;7.63;;;;;;;42.42;22.55;97111.97;4895450;28;20079;-67
2022/05/14 08:19:29;;;;;;;25.55;7.90;;;;;;;42.35;20.95;97115.03;4904412;29;20078;-67
2022/05/14 08:25:20;;;;;;;26.35;7.15;;;;;;;42.35;21.64;97098.78;4890319;29;20048;-66
2022/05/14 08:28:03;;;;;;;28.67;6.97;;;;;;;42.36;20.13;97095.00;4900067;29;20491;-65
2022/05/14 08:30:52;;;;;;;25.00;8.13;;;;;;;42.33;21.98;97098.22;4892394;29;20067;-67
2022/05/14 08:33:34;;;;;;;25.25;6.75;;;;;;;42.34;20.81;97089.03;4899157;29;20071;-66
2022/05/14 08:36:25;;;;;;;20.42;6.15;;;;;;;42.38;21.31;97090.91;4909562;29;20048;-66
2022/05/14 08:39:07;;;;;;;35.08;6.70;;;;;;;42.34;22.03;97089.03;4910450;29;20058;-67
2022/05/14 08:42:00;;;;;;;22.92;6.68;;;;;;;42.28;21.84;97068.50;4900435;29;20048;-67
2022/05/14 08:44:46;;;;;;;19.65;6.20;;;;;;;42.23;21.60;97073.97;4894121;29;20048;-66
2022/05/14 08:47:46;;;;;;;;;;;;;;;42.23;22.29;97072.06;4892974;29;20056;-66
2022/05/14 08:50:38;;;;;;;19.65;5.50;;;;;;;42.24;18.85;97062.03;4892224;29;20678;-67
2022/05/14 08:53:36;;;;;;;15.02;5.28;;;;;;;42.32;19.73;97064.13;4898444;29;20449;-66
2022/05/14 08:56:40;;;;;;;26.88;5.53;;;;;;;42.37;18.82;97064.91;4901267;29;20036;-65
2022/05/14 08:59:57;;;;;;;36.22;6.85;;;;;;;42.41;19.23;97062.41;4894523;29;20092;-68
2022/05/14 09:02:41;;;;;;;22.77;5.57;;;;;;;42.45;19.02;97068.88;4899247;29;20067;-68
2022/05/14 09:05:33;;;;;;;25.25;5.82;;;;;;;42.34;19.85;97048.41;4900287;29;20052;-68
2022/05/14 09:08:16;;;;;;;27.63;5.90;;;;;;;42.37;20.73;97055.97;4897868;29;20685;-67
2022/05/14 09:11:23;;;;;;;28.15;6.78;;;;;;;42.32;21.73;97050.56;4897140;29;20575;-66
2022/05/14 09:14:01;;;;;;;21.83;5.95;;;;;;;42.09;22.01;97046.78;4905314;29;20040;-67
2022/05/14 09:16:58;;;;;;;25.67;6.05;;;;;;;42.09;18.89;97051.41;4901623;29;20084;-68
2022/05/14 09:19:43;;;;;;;23.73;6.72;;;;;;;42.02;21.35;97049.03;4909584;29;20103;-66
2022/05/14 09:22:47;;;;;;;;;;;;;;;42.00;18.83;97046.59;4904676;29;20056;-66
2022/05/14 09:25:43;;;;;;;27.03;6.80;;;;;;;41.97;19.79;97041.78;4907531;29;19946;-69
2022/05/14 09:28:44;;;;;;;32.58;8.55;;;;;;;41.86;20.80;97029.41;4900421;29;20075;-66
2022/05/14 09:31:39;;;;;;;38.38;9.90;;;;;;;41.75;23.25;97017.06;4893384;29;20064;-65
2022/05/14 09:34:30;;;;;;;32.53;9.57;;;;;;;41.71;23.87;97016.06;4897810;29;20092;-69
2022/05/14 09:37:18;;;;;;;36.53;9.90;;;;;;;41.73;21.93;97019.28;4894090;29;20068;-64
2022/05/14 09:40:24;;;;;;;28.02;8.18;;;;;;;41.71;22.34;97013.34;4899323;29;20151;-65
2022/05/14 09:43:22;;;;;;;32.92;8.40;;;;;;;41.61;22.25;97010.75;4896464;29;20041;-66
2022/05/14 09:46:23;;;;;;;43.28;9.50;;;;;;;41.59;22.04;97013.72;4897807;29;20111;-66
2022/05/14 09:49:12;;;;;;;44.78;9.60;;;;;;;41.53;23.05;97003.25;4899733;29;20053;-64
2022/05/14 09:52:05;;;;;;;37.05;9.05;;;;;;;41.62;21.28;96990.72;4895281;29;20072;-65
2022/05/14 09:55:03;;;;;;;53.08;9.20;;;;;;;41.57;22.33;96994.28;4897179;29;20124;-66
2022/05/14 09:58:06;;;;;;;42.55;9.20;;;;;;;41.49;22.73;96985.97;4896781;29;20052;-65
2022/05/14 10:01:03;;;;;;;39.13;9.07;;;;;;;41.46;22.98;96994.63;4897862;29;20139;-64
2022/05/14 10:04:20;;;;;;;42.53;9.20;;;;;;;41.40;22.74;96993.06;4906137;29;20071;-65
2022/05/14 10:08:03;;;;;;;39.17;9.30;;;;;;;41.45;21.15;97004.63;4890347;29;20484;-66
2022/05/14 10:10:51;;;;;;;33.95;9.25;;;;;;;41.48;20.61;97001.38;4891369;29;20148;-66
2022/05/14 10:13:49;;;;;;;26.45;7.72;;;;;;;41.47;20.49;96994.34;4901192;29;20595;-66
2022/05/14 10:17:33;;;;;;;27.50;7.85;;;;;;;41.42;20.81;96994.41;4900976;29;20060;-65
2022/05/14 10:20:40;;;;;;;20.42;7.93;;;;;;;41.26;21.92;96990.22;4882819;29;20112;-64
2022/05/14 10:27:29;;;;;;;39.13;8.02;;;;;;;41.20;22.02;96984.03;4894101;29;20627;-65
2022/05/14 10:30:27;;;;;;;33.88;7.10;;;;;;;41.15;21.73;96978.69;4898715;29;20048;-65
2022/05/14 10:33:22;;;;;;;38.22;8.07;;;;;;;41.06;22.26;96979.53;4900742;29;20052;-66
2022/05/14 10:36:04;;;;;;;34.47;9.20;;;;;;;40.91;21.85;96977.78;4901161;29;20530;-64
2022/05/14 10:39:04;;;;;;;37.95;8.77;;;;;;;40.89;21.71;96977.25;4905834;29;20056;-66
2022/05/14 10:41:55;;;;;;;26.58;7.05;;;;;;;40.92;21.72;96975.88;4904189;29;20055;-65
2022/05/14 10:44:56;;;;;;;37.28;8.15;;;;;;;41.02;21.30;96976.63;4899744;29;20540;-66
2022/05/14 10:47:46;;;;;;;21.33;7.75;;;;;;;41.00;21.78;96977.97;4904559;29;20076;-66
2022/05/14 10:50:34;;;;;;;28.80;7.90;;;;;;;41.07;20.33;96979.28;4904378;29;20058;-68
2022/05/14 10:53:18;;;;;;;33.60;9.55;;;;;;;40.89;21.27;96969.94;4897103;29;20045;-70
2022/05/14 10:56:44;;;;;;;29.83;8.75;;;;;;;40.87;20.57;96979.41;4899759;29;20108;-68
2022/05/14 10:59:54;;;;;;;;;;;;;;;40.86;22.24;96973.22;4909715;29;20048;-70
2022/05/14 11:02:59;;;;;;;24.70;7.38;;;;;;;40.89;20.70;96967.25;4903719;29;19963;-67
2022/05/14 11:05:53;;;;;;;24.98;7.55;;;;;;;40.81;21.88;96969.75;4908059;29;20057;-67
2022/05/14 11:08:51;;;;;;;34.95;8.93;;;;;;;40.82;19.94;96972.16;4901620;29;20112;-67
2022/05/14 11:11:58;;;;;;;24.35;7.25;;;;;;;40.83;21.68;96970.28;4903151;29;20430;-70
2022/05/14 11:14:55;;;;;;;32.97;7.28;;;;;;;40.80;21.15;96973.53;4892145;29;20052;-66
2022/05/14 11:17:50;;;;;;;24.00;7.70;;;;;;;40.73;20.75;96962.22;4900225;29;20111;-65
2022/05/14 11:20:32;;;;;;;28.83;7.10;;;;;;;40.76;21.33;96967.09;4893054;29;20057;-66
2022/05/14 11:23:22;;;;;;;34.58;7.82;;;;;;;40.72;20.23;96976.81;4895842;29;20127;-68
2022/05/14 11:26:19;;;;;;;38.92;8.63;;;;;;;40.69;21.17;96970.09;4910770;29;20048;-69
2022/05/14 11:29:33;;;;;;;35.08;7.78;;;;;;;40.54;23.23;96970.19;4901851;29;20047;-68
2022/05/14 11:32:19;;;;;;;37.53;9.18;;;;;;;40.53;22.42;96972.06;4909449;29;20047;-67
2022/05/14 11:35:15;;;;;;;38.75;8.20;;;;;;;40.56;21.74;96969.88;4898750;29;20054;-70
2022/05/14 11:37:52;;;;;;;28.80;7.18;;;;;;;40.47;22.57;96970.47;4896269;29;20049;-70
2022/05/14 11:40:42;;;;;;;49.95;8.90;;;;;;;40.40;22.62;96969.97;4905349;29;20056;-68
2022/05/14 11:43:38;;;;;;;41.63;7.07;;;;;;;40.50;21.80;96975.31;4908916;29;20044;-66
2022/05/14 11:46:48;;;;;;;19.45;5.80;;;;;;;40.30;21.18;96971.94;4896241;29;20433;-67
2022/05/14 11:49:48;;;;;;;23.90;5.70;;;;;;;40.24;20.50;96976.50;4903470;29;20147;-64
2022/05/14 11:53:01;;;;;;;25.98;5.75;;;;;;;40.05;19.75;96973.63;4891355;29;20056;-67
2022/05/14 11:56:01;;;;;;;16.48;4.95;;;;;;;39.97;20.18;96976.09;4915151;29;20088;-62
2022/05/14 11:59:10;;;;;;;22.40;6.05;;;;;;;39.91;19.51;96971.81;4897745;29;20583;-62
2022/05/14 12:01:49;;;;;;;21.05;5.43;;;;;;;39.94;20.20;96973.94;4895042;29;20066;-63
2022/05/14 12:04:44;;;;;;;27.65;5.50;;;;;;;39.81;20.00;96969.13;4900954;29;20056;-64
2022/05/14 12:07:41;;;;;;;44.33;9.43;;;;;;;39.65;21.48;96971.06;4903295;29;21417;-63
2022/05/14 12:10:52;;;;;;;24.77;5.53;;;;;;;39.45;22.91;96969.19;4898072;29;20167;-63
2022/05/14 12:13:54;;;;;;;45.47;7.43;;;;;;;39.34;23.36;96970.28;4894641;29;20052;-64
2022/05/14 12:16:54;;;;;;;47.28;10.05;;;;;;;39.28;24.21;96963.25;4557241;29;10000299;-63
2022/05/14 12:19:49;;;;;;;30.98;7.75;;;;;;;39.24;24.64;96964.88;4906291;29;20067;-61
2022/05/14 12:22:32;;;;;;;38.08;8.93;;;;;;;39.13;25.39;96971.34;4903623;29;20136;-65
2022/05/14 12:25:21;;;;;;;25.63;8.25;;;;;;;39.02;24.89;96970.56;4897130;29;20084;-64
2022/05/14 12:28:04;;;;;;;29.07;8.30;;;;;;;38.89;25.53;96961.09;4896238;29;20052;-63
2022/05/14 12:34:32;;;;;;;38.50;10.23;;;;;;;38.43;30.01;96962.88;4892658;29;20064;-64
2022/05/14 12:37:29;;;;;;;38.85;8.90;;;;;;;38.69;24.85;96966.47;4903019;29;20116;-62
2022/05/14 12:40:35;;;;;;;45.10;9.07;;;;;;;38.73;25.79;96970.22;4907188;29;20043;-65
2022/05/14 12:43:24;;;;;;;28.35;9.52;;;;;;;38.70;25.63;96970.78;4903793;29;20644;-66
2022/05/14 12:46:09;;;;;;;33.67;9.32;;;;;;;38.64;26.83;96966.44;4897341;29;20049;-65
2022/05/14 12:48:59;;;;;;;34.67;9.68;;;;;;;38.57;26.86;96964.00;4891898;29;20040;-67
2022/05/14 12:51:48;;;;;;;37.40;10.20;;;;;;;38.50;26.48;96970.72;4900161;29;20056;-68
2022/05/14 12:54:38;;;;;;;45.85;10.15;;;;;;;38.37;26.44;96971.22;4899252;29;20051;-66
2022/05/14 12:57:22;;;;;;;50.40;11.25;;;;;;;38.15;28.59;96966.84;4896524;29;20053;-68
2022/05/14 13:00:17;;;;;;;42.83;10.10;;;;;;;38.00;28.11;96966.75;4899110;29;20052;-66
2022/05/14 13:03:29;;;;;;;38.28;9.55;;;;;;;37.90;28.66;96969.41;4901811;29;20052;-66
2022/05/14 13:06:20;;;;;;;39.47;9.07;;;;;;;37.71;29.16;96971.72;4899871;29;20372;-66
2022/05/14 13:09:10;;;;;;;48.63;10.77;;;;;;;37.59;27.55;96972.97;4910321;29;20107;-66
2022/05/14 13:11:57;;;;;;;37.95;9.57;;;;;;;37.42;29.48;96970.47;4897714;29;20061;-66
2022/05/14 13:14:52;;;;;;;58.08;12.32;;;;;;;37.23;29.98;96969.25;4900306;29;20056;-68
2022/05/14 13:17:46;;;;;;;42.35;12.43;;;;;;;37.21;29.98;96979.41;4900151;29;20059;-68
2022/05/14 13:20:42;;;;;;;35.30;11.57;;;;;;;37.04;29.83;96982.22;4894025;29;20164;-67
2022/05/14 13:23:26;;;;;;;;;;;;;;;36.97;31.03;96977.06;4898810;29;20099;-68
2022/05/14 13:26:26;;;;;;;46.25;11.27;;;;;;;36.78;31.17;96981.19;4901071;29;20359;-66
2022/05/14 13:29:35;;;;;;;36.70;10.63;;;;;;;36.51;33.85;96975.78;4892867;29;20128;-66
2022/05/14 13:32:25;;;;;;;42.15;11.48;;;;;;;36.23;39.42;96973.34;4900176;29;20111;-67
2022/05/14 13:39:00;;;;;;;39.13;13.52;;;;;;;35.73;35.71;96977.00;4908525;29;20048;-65
2022/05/14 13:41:46;;;;;;;39.67;12.00;;;;;;;35.53;39.90;96974.78;4903146;29;20132;-68